Flight Track Log - Related Links

Times and Time Zones

All times are in EDT time to prevent confusion due to time zone crossing. See the UAL3741 flight status page for this flight to view local times or setup timezone preferences in your user account.

Time Position Orientation Groundspeed Altitude Reporting Facility
EDT Latitude Longitude Course Direction KTS MPH feet Rate Location/Type
Sun 11:08:53 PM 42.3086 -85.4133 91° East 471 542 29,400  Level Cleveland Center
Sun 11:09:53 PM 42.3053 -85.2417 91° East 460 529 30,400 1,000 Climbing Cleveland Center
Sun 11:10:53 PM 42.3036 -85.0731 91° East 460 529 31,400 950 Climbing Cleveland Center
Sun 11:11:53 PM 42.2994 -84.9097 92° East 448 516 32,300 800 Climbing Cleveland Center
Sun 11:12:53 PM 42.2975 -84.7383 91° East 448 516 33,000 750 Climbing Cleveland Center
Sun 11:13:53 PM 42.2894 -84.5553 93° East 443 510 33,800 750 Climbing Cleveland Center
Sun 11:14:53 PM 42.3056 -84.3878 83° East 443 510 34,500 600 Climbing Cleveland Center
Sun 11:15:53 PM 42.3192 -84.2200 84° East 438 504 35,000 250 Climbing Cleveland Center
Sun 11:16:53 PM 42.3328 -84.0522 84° East 443 510 35,000  Level Cleveland Center
Sun 11:17:53 PM 42.3483 -83.8789 83° East 448 516 35,000  Level Cleveland Center
Sun 11:18:53 PM 42.3636 -83.7053 83° East 461 531 35,000  Level Cleveland Center
Sun 11:19:53 PM 42.3742 -83.5400 85° East 485 558 35,000  Level Cleveland Center
Sun 11:20:53 PM 42.3911 -83.3608 83° East 475 547 35,000  Level Cleveland Center
Sun 11:21:53 PM 42.4058 -83.1817 84° East 481 554 35,000  Level Cleveland Center
Sun 11:22:53 PM 42.4181 -83.0047 85° East 481 554 35,000  Level Cleveland Center
Sun 11:23:53 PM 42.4322 -82.8253 84° East 481 554 35,000  Level Cleveland Center
Sun 11:24:53 PM 42.4439 -82.6456 85° East 481 554 35,000 250 Level Cleveland Center
Sun 11:25:53 PM 42.4572 -82.4658 84° East 481 554 35,500 550 Climbing Cleveland Center
Sun 11:26:53 PM 42.4706 -82.2861 84° East 481 554 36,100 600 Climbing Cleveland Center
Sun 11:27:53 PM 42.4833 -82.1092 84° East 476 548 36,700 450 Climbing Cleveland Center
Sun 11:28:53 PM 42.4939 -81.9292 85° East 476 548 37,000 150 Climbing Cleveland Center
Sun 11:29:53 PM 42.5086 -81.7294 84° East 476 548 37,000  Level Cleveland Center
Sun 11:30:53 PM 42.5206 -81.5578 85° East 489 563 37,000  Level Cleveland Center
Sun 11:31:53 PM 42.5325 -81.3692 85° East 496 571 37,000  Level Cleveland Center
Sun 11:32:53 PM 42.5442 -81.1750 85° East 501 577 37,000  Level Cleveland Center
Sun 11:33:53 PM 42.5533 -80.9833 86° East 506 582 37,000  Level Cleveland Center
Sun 11:34:53 PM 42.5664 -80.7917 85° East 506 582 37,000  Level Cleveland Center
Sun 11:35:53 PM 42.5769 -80.5917 86° East 526 605 37,000  Level Cleveland Center
Sun 11:36:53 PM 42.5892 -80.3772 86° East 526 605 37,000  Level Cleveland Center
Sun 11:37:53 PM 42.5992 -80.1800 86° East 526 605 37,000  Level Cleveland Center
Sun 11:38:53 PM 42.6108 -79.9767 85° East 531 611 37,000  Level Cleveland Center
Sun 11:39:53 PM 42.6200 -79.7733 86° East 536 617 37,000  Level Cleveland Center
Sun 11:40:53 PM 42.6308 -79.5672 86° East 536 617 37,000  Level Cleveland Center
Sun 11:41:53 PM 42.6414 -79.3583 86° East 536 617 37,000  Level Cleveland Center
Sun 11:42:53 PM 42.6494 -79.1519 87° East 542 624 37,000  Level Cleveland Center
Sun 11:43:53 PM 42.6569 -78.9400 87° East 547 629 37,000  Level Cleveland Center
Sun 11:44:53 PM 42.6642 -78.7308 87° East 553 636 37,000  Level Cleveland Center
Sun 11:45:53 PM 42.6731 -78.5217 87° East 553 636 37,000  Level Cleveland Center
Sun 11:46:53 PM 42.6817 -78.3125 87° East 553 636 37,000  Level Cleveland Center
Sun 11:47:53 PM 42.6878 -78.1003 88° East 553 636 37,000  Level Cleveland Center
Sun 11:48:53 PM 42.6956 -77.8881 87° East 553 636 37,000  Level Cleveland Center
Sun 11:49:53 PM 42.6994 -77.6986 88° East 553 636 37,000  Level Cleveland Center
Sun 11:51:53 PM 42.7100 -77.2786 88° East 588 677 37,000  Level Boston Center
Sun 11:52:51 PM 42.7175 -77.0500 87° East 564 649 37,000  Level Boston Center
Sun 11:53:51 PM 42.7219 -76.8356 88° East 559 643 37,000  Level Boston Center
Sun 11:54:51 PM 42.7278 -76.6239 88° East 559 643 37,000  Level Boston Center
Sun 11:55:53 PM 42.7606 -76.4111 78° East 559 643 37,000  Level Boston Center
Sun 11:56:51 PM 42.7967 -76.2039 77° East 564 649 37,000  Level Boston Center
Sun 11:57:52 PM 42.8286 -75.9878 79° East 564 649 37,000  Level Boston Center
Sun 11:58:54 PM 42.8600 -75.7797 78° East 569 655 37,000  Level Boston Center
Sun 11:59:51 PM 42.8906 -75.5831 78° East 574 661 37,000  Level Boston Center
Mon 12:00:53 AM 42.9192 -75.3689 80° East 574 661 37,000  Level Boston Center
Mon 12:01:51 AM 42.9517 -75.1550 78° East 580 667 37,000  Level Boston Center
Mon 12:02:54 AM 42.9836 -74.9433 78° East 575 662 37,000  Level Boston Center
Mon 12:03:52 AM 43.0131 -74.7317 79° East 575 662 37,000  Level Boston Center
Mon 12:04:51 AM 43.0422 -74.5169 79° East 575 662 37,000  Level Boston Center
Mon 12:05:52 AM 43.0708 -74.3017 80° East 575 662 37,000 -545 Level Boston Center
Mon 12:06:52 AM 43.1014 -74.0864 79° East 575 662 35,900 -1,300 Descending Boston Center
Mon 12:07:52 AM 43.1311 -73.8739 79° East 575 662 34,400 -1,600 Descending Boston Center
Mon 12:08:52 AM 43.1608 -73.6469 80° East 568 654 32,700 -1,600 Descending Boston Center
Mon 12:09:52 AM 43.1881 -73.4311 80° East 562 647 31,200 -1,412 Descending Boston Center
Mon 12:10:51 AM 43.2167 -73.2492 78° East 556 640 29,900 -1,513 Descending Boston Center
Mon 12:11:51 AM 43.2408 -73.0558 80° East 541 623 28,200 -1,700 Descending Boston Center
Mon 12:12:51 AM 43.2667 -72.8678 79° East 515 593 26,500 -1,600 Descending Boston Center
Mon 12:13:51 AM 43.2881 -72.6769 81° East 509 586 25,000 -1,230 Descending Boston Center
Mon 12:14:53 AM 43.3111 -72.4914 80° East 498 573 24,000 -1,736 Descending Boston Center
Mon 12:15:52 AM 43.3319 -72.3089 81° East 493 567 21,500 -2,168 Descending Boston Center
Mon 12:16:52 AM 43.3525 -72.1375 81° East 474 545 19,700 -1,835 Descending Boston Center
Mon 12:17:53 AM 43.3725 -71.9575 81° East 445 512 17,800 -1,866 Descending Boston Center
Mon 12:18:51 AM 43.3906 -71.7944 81° East 429 494 16,000 -1,729 Descending Boston Center
Mon 12:19:51 AM 43.4083 -71.6369 81° East 424 488 14,400 -1,750 Descending Boston Center
Mon 12:20:51 AM 43.4258 -71.4825 81° East 414 476 12,500 -1,650 Descending Boston Center
Mon 12:21:51 AM 43.4433 -71.3306 81° East 409 471 11,100 -700 Descending Boston Center
Mon 12:22:51 AM 43.4606 -71.1786 81° East 404 465 11,100 -50 Level Boston Center
Mon 12:23:52 AM 43.4942 -71.0347 72° East 392 451 11,000 -150 Descending Boston Center
Mon 12:24:51 AM 43.5300 -70.8967 70° East 387 445 10,800 -1,091 Descending Boston Center
Mon 12:25:53 AM 43.5597 -70.7928 68° East 320 368 8,800 -2,098 Descending Boston Center
Mon 12:26:54 AM 43.5853 -70.6917 71° East 287 330 6,500 -2,085 Descending Boston Center
Mon 12:27:51 AM 43.6108 -70.5961 70° East 267 307 4,700 -1,692 Descending Boston Center
Mon 12:28:51 AM 43.6306 -70.5211 70° East 230 265 3,200 -1,350 Descending Boston Center
Mon 12:29:51 AM 43.6481 -70.4544 70° East 184 212 2,000 -1,041 Descending Boston Center
Mon 12:30:52 AM 43.6514 -70.3969 85° East 158 182 1,100 -850 Descending Boston Center
Mon 12:31:51 AM 43.6483 -70.3397 94° East 152 175 300 1,513 Descending Boston Center
Mon 12:32:51 AM 43.6450 -70.2853 95° East 146 168 4,100 1,900 Climbing Boston Center
Mon 12:33:51 AM 43.6378 -70.2281 100° East 146 168 4,100  Level Boston Center

Login

Don't have an account? Register now (free) for customized features, flight alerts, and more!